Christy T — WDE7137 — position and weather

sailwx.info

Track history (hours):
 
Tides and Currents Weather Stations Pressure Air Temp Water Temp Dewpoint Dewpoint Depression Visibility Wind Speed Wind Dir Waves Ship Positions

Christy T

More information available from US FCC via Universal Licensing System and Coast Guard Vessel Documentation Center.

Last reported at 2014-Aug-15 04:18 UTC. Time now 2014-Aug-21 04:20 UTC.
Position N 30°13' W 091°09'.

Length 30 m.

Type: Towing. MMSI: 367389450.

Date/timePositionNaut miles runAvg speedWind from/ knotsBaromVisibWave heightAir tempDewpointWater temp
2014-Aug-15 04:18N 30°13' W 091°09'31 3.4
2014-Aug-14 19:27N 30°02' W 090°36'4 4.9
2014-Aug-14 18:33N 30°03' W 090°31'5 1.0
2014-Aug-14 13:22N 29°60' W 090°26'5 6.5
2014-Aug-14 12:33N 30°03' W 090°31'7 7.3
2014-Aug-14 11:33N 30°03' W 090°40'8 7.9
2014-Aug-14 10:33N 29°60' W 090°48'6 5.9
2014-Aug-14 09:31N 30°04' W 090°53'5 4.9
2014-Aug-14 08:33N 30°07' W 090°58'  
2014-Aug-05 07:27N 29°59' W 090°49'  
Track history (hours):
 
Tides and Currents Weather Stations Pressure Air Temp Water Temp Dewpoint Dewpoint Depression Visibility Wind Speed Wind Dir Waves Ship Positions

Christy T

More information available from US FCC via Universal Licensing System and Coast Guard Vessel Documentation Center.

Last reported at 2014-Aug-15 04:18 UTC. Time now 2014-Aug-21 04:20 UTC.
Position N 30°13' W 091°09'.

Length 30 m.

Type: Towing. MMSI: 367389450.

Date/timePositionNaut miles runAvg speedWind from/ knotsBaromVisibWave heightAir tempDewpointWater temp
2014-Aug-15 04:18N 30°13' W 091°09'31 3.4
2014-Aug-14 19:27N 30°02' W 090°36'4 4.9
2014-Aug-14 18:33N 30°03' W 090°31'5 1.0
2014-Aug-14 13:22N 29°60' W 090°26'5 6.5
2014-Aug-14 12:33N 30°03' W 090°31'7 7.3
2014-Aug-14 11:33N 30°03' W 090°40'8 7.9
2014-Aug-14 10:33N 29°60' W 090°48'6 5.9
2014-Aug-14 09:31N 30°04' W 090°53'5 4.9
2014-Aug-14 08:33N 30°07' W 090°58'  
2014-Aug-05 07:27N 29°59' W 090°49'  

Dump ship's entire track history